Time;durP1;ratioP1;P1;durP2;ratioP2;P2;SDS_P1;SDS_P2;PMS_P1;PMS_P2;Temp;Humidity;BMP_temperature;BMP_pressure;BME280_temperature;BME280_humidity;BME280_pressure;Samples;Min_cycle;Max_cycle;Signal;HPM_P1;HPM_P2
2021/08/27 00:01:13;;;;;;;12.77;9.13;;;;;;;;;;5012703;28;20026;-67
2021/08/27 00:03:38;;;;;;;14.43;9.65;;;;;;;;;;5012475;28;20029;-68
2021/08/27 00:06:03;;;;;;;12.45;8.88;;;;;;;;;;5012225;28;20034;-68
2021/08/27 00:08:29;;;;;;;13.65;9.50;;;;;;;;;;5012563;28;20045;-68
2021/08/27 00:10:55;;;;;;;12.50;9.45;;;;;;;;;;5012642;28;20120;-68
2021/08/27 00:13:20;;;;;;;14.77;9.85;;;;;;;;;;5012593;28;20036;-67
2021/08/27 00:15:46;;;;;;;14.32;10.05;;;;;;;;;;5012433;28;20033;-67
2021/08/27 00:18:11;;;;;;;15.13;10.40;;;;;;;;;;5012442;28;20073;-67
2021/08/27 00:20:38;;;;;;;13.68;10.25;;;;;;;;;;5012426;28;20028;-67
2021/08/27 00:23:05;;;;;;;15.50;9.98;;;;;;;;;;5011679;28;20030;-67
2021/08/27 00:25:30;;;;;;;14.10;10.63;;;;;;;;;;5011983;28;20025;-67
2021/08/27 00:27:56;;;;;;;19.70;11.35;;;;;;;;;;5011921;28;20164;-67
2021/08/27 00:30:21;;;;;;;17.77;11.20;;;;;;;;;;5012340;28;20236;-67
2021/08/27 00:32:48;;;;;;;18.77;11.32;;;;;;;;;;5012146;28;20014;-68
2021/08/27 00:35:13;;;;;;;15.35;10.77;;;;;;;;;;5012229;28;20064;-68
2021/08/27 00:37:39;;;;;;;18.33;11.27;;;;;;;;;;5012100;28;20053;-68
2021/08/27 00:40:05;;;;;;;18.48;11.52;;;;;;;;;;5011462;28;20116;-67
2021/08/27 00:42:31;;;;;;;15.23;11.50;;;;;;;;;;5011959;28;20026;-68
2021/08/27 00:44:56;;;;;;;18.08;11.55;;;;;;;;;;5011517;28;20033;-68
2021/08/27 00:47:22;;;;;;;16.85;10.98;;;;;;;;;;5011773;28;20037;-67
2021/08/27 00:49:48;;;;;;;16.10;11.60;;;;;;;;;;5011980;28;20385;-68
2021/08/27 00:52:14;;;;;;;15.60;11.10;;;;;;;;;;5012216;28;20056;-68
2021/08/27 00:54:52;;;;;;;15.20;11.18;;;;;;;;;;5011915;28;20049;-67
2021/08/27 00:57:22;;;;;;;14.40;11.00;;;;;;;;;;5011769;28;20029;-67
2021/08/27 00:59:47;;;;;;;14.82;10.85;;;;;;;;;;5011762;28;20037;-68
2021/08/27 01:02:13;;;;;;;13.15;9.75;;;;;;;;;;5011280;28;20026;-67
2021/08/27 01:04:41;;;;;;;13.05;10.57;;;;;;;;;;5011698;28;20017;-67
2021/08/27 01:07:13;;;;;;;15.43;10.95;;;;;;;;;;5010878;28;20057;-68
2021/08/27 01:09:57;;;;;;;14.52;10.65;;;;;;;;;;5011637;28;20048;-66
2021/08/27 01:13:01;;;;;;;13.73;10.57;;;;;;;;;;5011659;28;20026;-68
2021/08/27 01:15:38;;;;;;;14.70;10.38;;;;;;;;;;4990197;28;20042;-67
2021/08/27 01:18:30;;;;;;;13.98;9.90;;;;;;;;;;5011202;28;20072;-68
2021/08/27 01:21:19;;;;;;;15.07;10.13;;;;;;;;;;4984361;28;20042;-67
2021/08/27 01:23:52;;;;;;;13.95;10.13;;;;;;;;;;5011285;28;20060;-68
2021/08/27 01:26:21;;;;;;;12.93;10.13;;;;;;;;;;5011411;28;20032;-67
2021/08/27 01:28:49;;;;;;;15.75;9.80;;;;;;;;;;5011106;28;20029;-68
2021/08/27 01:31:38;;;;;;;13.00;9.75;;;;;;;;;;5011472;28;20105;-69
2021/08/27 01:34:12;;;;;;;13.20;10.05;;;;;;;;;;5011113;28;20382;-68
2021/08/27 01:36:39;;;;;;;14.52;10.27;;;;;;;;;;5010740;28;20382;-68
2021/08/27 01:39:07;;;;;;;14.05;10.38;;;;;;;;;;5010948;28;20029;-68
2021/08/27 01:41:34;;;;;;;14.10;10.38;;;;;;;;;;5011174;28;20549;-68
2021/08/27 01:44:07;;;;;;;15.35;10.43;;;;;;;;;;5010951;28;20024;-68
2021/08/27 01:46:41;;;;;;;15.07;11.20;;;;;;;;;;5011169;28;20025;-67
2021/08/27 01:49:09;;;;;;;15.38;10.65;;;;;;;;;;4991371;28;20038;-69
2021/08/27 01:51:35;;;;;;;12.75;9.93;;;;;;;;;;4991583;28;20112;-68
2021/08/27 01:54:02;;;;;;;14.30;9.55;;;;;;;;;;5010020;28;20037;-68
2021/08/27 01:56:28;;;;;;;13.57;9.90;;;;;;;;;;5010977;28;20113;-68
2021/08/27 01:58:57;;;;;;;12.73;10.45;;;;;;;;;;5010967;28;20112;-68
2021/08/27 02:01:24;;;;;;;11.70;9.93;;;;;;;;;;5010828;28;20355;-68
2021/08/27 02:03:52;;;;;;;15.98;10.35;;;;;;;;;;5011079;28;20109;-68
2021/08/27 02:06:18;;;;;;;14.60;9.77;;;;;;;;;;5010934;28;20022;-68
2021/08/27 02:08:44;;;;;;;14.20;9.60;;;;;;;;;;5010808;28;20068;-68
2021/08/27 02:11:11;;;;;;;14.10;9.93;;;;;;;;;;5010529;28;20021;-68
2021/08/27 02:13:37;;;;;;;12.35;10.30;;;;;;;;;;5010629;28;20030;-68
2021/08/27 02:16:06;;;;;;;13.48;10.18;;;;;;;;;;5010647;28;20437;-68
2021/08/27 02:18:34;;;;;;;13.98;10.43;;;;;;;;;;5010670;28;20037;-69
2021/08/27 02:21:04;;;;;;;13.50;10.02;;;;;;;;;;5010435;28;20022;-67
2021/08/27 02:23:31;;;;;;;13.70;9.98;;;;;;;;;;5010554;28;20425;-67
2021/08/27 02:25:57;;;;;;;14.68;10.60;;;;;;;;;;5010662;28;20052;-69
2021/08/27 02:28:24;;;;;;;14.48;9.38;;;;;;;;;;5010852;28;20498;-69
2021/08/27 02:30:51;;;;;;;13.45;9.77;;;;;;;;;;5010802;28;20033;-68
2021/08/27 02:33:17;;;;;;;14.10;9.50;;;;;;;;;;5010545;28;20052;-67
2021/08/27 02:35:44;;;;;;;12.35;9.40;;;;;;;;;;5010718;28;20026;-67
2021/08/27 02:38:15;;;;;;;11.60;8.45;;;;;;;;;;5009974;28;20055;-69
2021/08/27 02:40:41;;;;;;;15.80;9.27;;;;;;;;;;4992898;28;20033;-68
2021/08/27 02:43:06;;;;;;;11.00;8.20;;;;;;;;;;5010393;28;20083;-68
2021/08/27 02:45:32;;;;;;;11.77;7.22;;;;;;;;;;5010997;28;20080;-68
2021/08/27 02:47:57;;;;;;;11.30;7.88;;;;;;;;;;5012352;28;20033;-68
2021/08/27 02:50:23;;;;;;;12.50;7.60;;;;;;;;;;5014160;28;20026;-69
2021/08/27 02:52:54;;;;;;;11.90;7.65;;;;;;;;;;4996525;28;20025;-68
2021/08/27 02:55:29;;;;;;;9.55;7.13;;;;;;;;;;5014297;28;20069;-67
2021/08/27 02:58:07;;;;;;;10.57;6.80;;;;;;;;;;5013837;28;20030;-68
2021/08/27 03:00:51;;;;;;;11.93;6.28;;;;;;;;;;5014056;28;20490;-68
2021/08/27 03:03:21;;;;;;;10.63;6.85;;;;;;;;;;4995885;28;20602;-68
2021/08/27 03:05:47;;;;;;;12.23;6.47;;;;;;;;;;5013935;28;20045;-68
2021/08/27 03:08:19;;;;;;;10.93;6.80;;;;;;;;;;5013527;28;20117;-68
2021/08/27 03:11:06;;;;;;;10.00;6.15;;;;;;;;;;5013899;28;20029;-69
2021/08/27 03:13:48;;;;;;;10.32;6.07;;;;;;;;;;5013854;28;20033;-68
2021/08/27 03:16:16;;;;;;;11.77;6.28;;;;;;;;;;5013334;28;20044;-68
2021/08/27 03:18:58;;;;;;;11.48;6.53;;;;;;;;;;5013397;28;20045;-68
2021/08/27 03:21:41;;;;;;;9.55;6.20;;;;;;;;;;5013663;28;20022;-68
2021/08/27 03:24:15;;;;;;;8.27;5.13;;;;;;;;;;5011833;28;20461;-67
2021/08/27 03:26:43;;;;;;;9.52;6.10;;;;;;;;;;5013477;28;20026;-68
2021/08/27 03:29:14;;;;;;;10.88;6.07;;;;;;;;;;5012967;28;20032;-66
2021/08/27 03:31:40;;;;;;;9.38;5.80;;;;;;;;;;5013448;28;20064;-68
2021/08/27 03:34:06;;;;;;;19.65;6.53;;;;;;;;;;5013072;28;20034;-67
2021/08/27 03:36:33;;;;;;;9.98;5.72;;;;;;;;;;5013316;28;20029;-68
2021/08/27 03:39:00;;;;;;;10.65;5.75;;;;;;;;;;5007149;28;20478;-68
2021/08/27 03:41:30;;;;;;;8.75;6.43;;;;;;;;;;4993669;28;20045;-68
2021/08/27 03:43:57;;;;;;;14.40;6.57;;;;;;;;;;4993641;28;20394;-67
2021/08/27 03:46:23;;;;;;;10.82;6.10;;;;;;;;;;4998888;28;20521;-67
2021/08/27 03:48:50;;;;;;;11.82;6.38;;;;;;;;;;5013126;28;20033;-68
2021/08/27 03:51:17;;;;;;;10.07;6.05;;;;;;;;;;5012939;28;20116;-68
2021/08/27 03:53:44;;;;;;;9.57;6.68;;;;;;;;;;5012715;28;20029;-69
2021/08/27 03:56:10;;;;;;;10.70;6.38;;;;;;;;;;5012390;28;20113;-67
2021/08/27 03:58:37;;;;;;;11.43;6.25;;;;;;;;;;5012836;28;20057;-68
2021/08/27 04:01:03;;;;;;;10.18;6.70;;;;;;;;;;5012007;28;20553;-68
2021/08/27 04:03:29;;;;;;;10.75;6.47;;;;;;;;;;5012887;28;20045;-68
2021/08/27 04:06:00;;;;;;;14.02;7.03;;;;;;;;;;5013049;28;20030;-68
2021/08/27 04:08:26;;;;;;;11.48;6.30;;;;;;;;;;5012628;28;20049;-68
2021/08/27 04:10:52;;;;;;;9.75;6.32;;;;;;;;;;5012196;28;20072;-68
2021/08/27 04:13:18;;;;;;;10.23;6.00;;;;;;;;;;5012227;28;20026;-68
2021/08/27 04:15:44;;;;;;;11.40;6.13;;;;;;;;;;4994803;28;20026;-67
2021/08/27 04:18:09;;;;;;;10.15;6.32;;;;;;;;;;5012398;28;20429;-68
2021/08/27 04:20:34;;;;;;;12.85;6.38;;;;;;;;;;5012092;28;20104;-68
2021/08/27 04:23:00;;;;;;;10.60;5.93;;;;;;;;;;4994625;28;20053;-69
2021/08/27 04:25:26;;;;;;;12.65;6.65;;;;;;;;;;5012476;28;20033;-67
2021/08/27 04:27:51;;;;;;;9.90;5.72;;;;;;;;;;5011999;28;20077;-67
2021/08/27 04:30:16;;;;;;;11.27;6.53;;;;;;;;;;5010556;28;20466;-68
2021/08/27 04:32:42;;;;;;;8.38;5.63;;;;;;;;;;5006836;28;20026;-67
2021/08/27 04:35:08;;;;;;;11.30;5.68;;;;;;;;;;5011153;28;20036;-68
2021/08/27 04:37:33;;;;;;;10.65;6.00;;;;;;;;;;5012256;28;20538;-68
2021/08/27 04:39:59;;;;;;;11.77;6.00;;;;;;;;;;4994569;28;20397;-69
2021/08/27 04:42:24;;;;;;;11.85;5.80;;;;;;;;;;5011866;28;20076;-68
2021/08/27 04:44:50;;;;;;;9.15;5.78;;;;;;;;;;5012069;28;20164;-69
2021/08/27 04:47:15;;;;;;;9.02;5.63;;;;;;;;;;5011389;28;20040;-67
2021/08/27 04:49:41;;;;;;;10.02;5.65;;;;;;;;;;5011991;28;20062;-68
2021/08/27 04:52:07;;;;;;;9.02;5.90;;;;;;;;;;5011540;28;20026;-68
2021/08/27 04:54:32;;;;;;;9.38;5.32;;;;;;;;;;5011953;28;20105;-68
2021/08/27 04:56:58;;;;;;;12.05;6.47;;;;;;;;;;5010495;28;20030;-68
2021/08/27 04:59:23;;;;;;;9.93;5.43;;;;;;;;;;5011706;28;20021;-67
2021/08/27 05:01:49;;;;;;;10.57;6.00;;;;;;;;;;5011735;28;20201;-68
2021/08/27 05:04:15;;;;;;;10.85;5.90;;;;;;;;;;5010377;28;20037;-67
2021/08/27 05:06:40;;;;;;;11.88;5.55;;;;;;;;;;5011360;28;20061;-70
2021/08/27 05:09:06;;;;;;;9.73;5.40;;;;;;;;;;5010879;28;20444;-68
2021/08/27 05:11:31;;;;;;;12.10;5.70;;;;;;;;;;5011193;28;20018;-69
2021/08/27 05:13:57;;;;;;;10.20;5.70;;;;;;;;;;5011571;28;20588;-68
2021/08/27 05:16:22;;;;;;;14.43;6.82;;;;;;;;;;4993624;28;20025;-67
2021/08/27 05:18:48;;;;;;;14.50;6.30;;;;;;;;;;5011409;28;20026;-67
2021/08/27 05:21:15;;;;;;;13.70;7.30;;;;;;;;;;5011091;28;20022;-67
2021/08/27 05:23:41;;;;;;;9.55;5.90;;;;;;;;;;5011361;28;20030;-69
2021/08/27 05:26:06;;;;;;;10.45;6.00;;;;;;;;;;5011231;28;20386;-68
2021/08/27 05:28:32;;;;;;;8.63;5.68;;;;;;;;;;5011354;28;20482;-69
2021/08/27 05:30:57;;;;;;;9.35;5.78;;;;;;;;;;5011363;28;20032;-69
2021/08/27 05:33:23;;;;;;;8.93;5.40;;;;;;;;;;5010990;28;20478;-71
2021/08/27 05:35:48;;;;;;;23.42;7.82;;;;;;;;;;5011182;28;20026;-70
2021/08/27 05:38:14;;;;;;;9.25;5.85;;;;;;;;;;5010534;28;20025;-69
2021/08/27 05:40:39;;;;;;;11.50;6.25;;;;;;;;;;4992899;28;20033;-68
2021/08/27 05:43:05;;;;;;;8.57;5.72;;;;;;;;;;5011035;28;20025;-68
2021/08/27 05:45:30;;;;;;;12.73;5.90;;;;;;;;;;5011219;28;20032;-69
2021/08/27 05:47:56;;;;;;;11.18;5.75;;;;;;;;;;5011236;28;20375;-69
2021/08/27 05:50:21;;;;;;;10.70;5.80;;;;;;;;;;5010990;28;20014;-68
2021/08/27 05:52:48;;;;;;;9.40;5.75;;;;;;;;;;5010913;28;20072;-68
2021/08/27 05:55:14;;;;;;;11.15;5.70;;;;;;;;;;5010869;28;20367;-69
2021/08/27 05:57:39;;;;;;;7.80;5.30;;;;;;;;;;5011198;28;20087;-68
2021/08/27 06:00:06;;;;;;;7.28;5.43;;;;;;;;;;5010750;28;20017;-69
2021/08/27 06:02:32;;;;;;;10.63;5.28;;;;;;;;;;5010584;28;20034;-69
2021/08/27 06:04:59;;;;;;;9.68;5.53;;;;;;;;;;5011049;28;20033;-69
2021/08/27 06:07:26;;;;;;;8.90;5.72;;;;;;;;;;5010406;28;20559;-68
2021/08/27 06:09:52;;;;;;;9.88;5.50;;;;;;;;;;5010994;28;20018;-69
2021/08/27 06:12:17;;;;;;;11.82;6.43;;;;;;;;;;5010779;28;20405;-69
2021/08/27 06:14:43;;;;;;;9.25;5.53;;;;;;;;;;5010980;28;20018;-68
2021/08/27 06:17:09;;;;;;;7.80;5.45;;;;;;;;;;5010574;28;20475;-68
2021/08/27 06:19:35;;;;;;;9.93;6.32;;;;;;;;;;5010656;28;20060;-68
2021/08/27 06:22:00;;;;;;;10.35;6.00;;;;;;;;;;4993666;28;20493;-70
2021/08/27 06:24:26;;;;;;;9.95;5.57;;;;;;;;;;5014464;28;20030;-69
2021/08/27 06:26:51;;;;;;;9.15;6.57;;;;;;;;;;5014366;28;20445;-69
2021/08/27 06:29:17;;;;;;;9.40;6.18;;;;;;;;;;5014664;28;20497;-68
2021/08/27 06:31:42;;;;;;;9.55;5.70;;;;;;;;;;5014653;28;20022;-69
2021/08/27 06:34:08;;;;;;;8.40;5.75;;;;;;;;;;5014125;28;20100;-69
2021/08/27 06:36:33;;;;;;;9.48;5.25;;;;;;;;;;5014277;28;20036;-71
2021/08/27 06:38:59;;;;;;;7.55;5.47;;;;;;;;;;5014432;28;20100;-68
2021/08/27 06:41:25;;;;;;;8.52;5.43;;;;;;;;;;5014222;28;20048;-69
2021/08/27 06:43:50;;;;;;;9.40;5.28;;;;;;;;;;5014344;28;20192;-69
2021/08/27 06:46:20;;;;;;;8.85;5.13;;;;;;;;;;5014043;28;20117;-70
2021/08/27 06:48:46;;;;;;;11.13;5.53;;;;;;;;;;5014049;28;20359;-68
2021/08/27 06:51:12;;;;;;;9.88;5.50;;;;;;;;;;5014641;28;20030;-68
2021/08/27 06:53:38;;;;;;;9.40;5.28;;;;;;;;;;5014515;28;20014;-70
2021/08/27 06:56:04;;;;;;;8.15;5.22;;;;;;;;;;5013937;28;20030;-69
2021/08/27 06:58:29;;;;;;;8.32;5.50;;;;;;;;;;5013879;28;20474;-68
2021/08/27 07:00:56;;;;;;;10.05;4.82;;;;;;;;;;5014764;28;21712;-70
2021/08/27 07:03:21;;;;;;;8.95;5.25;;;;;;;;;;5013456;28;20037;-68
2021/08/27 07:05:47;;;;;;;11.05;6.18;;;;;;;;;;5013765;28;20022;-70
2021/08/27 07:08:12;;;;;;;9.23;5.47;;;;;;;;;;5013458;28;20402;-69
2021/08/27 07:10:38;;;;;;;11.05;5.90;;;;;;;;;;5014002;28;20097;-69
2021/08/27 07:13:04;;;;;;;9.52;5.55;;;;;;;;;;4996146;28;20028;-70
2021/08/27 07:15:30;;;;;;;8.35;5.47;;;;;;;;;;5013253;28;20034;-70
2021/08/27 07:17:56;;;;;;;8.57;5.68;;;;;;;;;;4996134;28;20124;-69
2021/08/27 07:20:22;;;;;;;9.63;5.53;;;;;;;;;;5013768;28;20030;-68
2021/08/27 07:22:48;;;;;;;7.68;5.03;;;;;;;;;;5013798;28;20018;-66
2021/08/27 07:25:14;;;;;;;9.07;4.95;;;;;;;;;;5013221;28;20109;-71
2021/08/27 07:27:40;;;;;;;7.80;4.95;;;;;;;;;;5012656;28;20022;-69
2021/08/27 07:30:07;;;;;;;8.10;5.60;;;;;;;;;;5023118;28;20033;-71
2021/08/27 07:32:33;;;;;;;8.73;5.10;;;;;;;;;;5012892;28;20084;-70
2021/08/27 07:34:59;;;;;;;9.15;5.50;;;;;;;;;;5013250;28;20099;-69
2021/08/27 07:37:24;;;;;;;7.68;5.18;;;;;;;;;;5013132;28;20478;-70
2021/08/27 07:39:50;;;;;;;9.00;5.18;;;;;;;;;;5013736;28;20454;-69
2021/08/27 07:42:15;;;;;;;9.55;5.30;;;;;;;;;;5013056;28;20026;-69
2021/08/27 07:44:41;;;;;;;7.97;4.88;;;;;;;;;;5013408;28;20097;-70
2021/08/27 07:47:07;;;;;;;9.75;5.28;;;;;;;;;;4999460;28;20029;-70
2021/08/27 07:49:33;;;;;;;11.10;5.28;;;;;;;;;;5013213;28;20038;-69
2021/08/27 07:52:02;;;;;;;9.52;5.18;;;;;;;;;;5013441;28;20030;-70
2021/08/27 07:54:28;;;;;;;6.78;5.15;;;;;;;;;;5013418;28;20057;-69
2021/08/27 07:56:53;;;;;;;8.60;5.30;;;;;;;;;;5013096;28;20064;-71
2021/08/27 07:59:19;;;;;;;8.15;5.18;;;;;;;;;;5012296;28;20110;-71
2021/08/27 08:01:44;;;;;;;9.68;5.53;;;;;;;;;;5013143;28;20025;-70
2021/08/27 08:04:10;;;;;;;8.38;5.28;;;;;;;;;;5012943;28;20037;-70
2021/08/27 08:06:35;;;;;;;9.45;5.45;;;;;;;;;;5010597;28;20026;-72
2021/08/27 08:09:05;;;;;;;9.30;5.32;;;;;;;;;;4993083;28;20049;-68
2021/08/27 08:11:31;;;;;;;7.35;4.88;;;;;;;;;;4992020;28;20034;-69
2021/08/27 08:13:57;;;;;;;7.82;5.25;;;;;;;;;;4993611;28;20026;-72
2021/08/27 08:16:23;;;;;;;8.25;5.18;;;;;;;;;;4993866;28;20021;-70
2021/08/27 08:18:49;;;;;;;10.20;5.55;;;;;;;;;;4990408;28;20414;-70
2021/08/27 08:21:15;;;;;;;9.50;5.50;;;;;;;;;;4993085;28;20528;-70
2021/08/27 08:23:40;;;;;;;7.47;4.60;;;;;;;;;;4991528;28;20026;-68
2021/08/27 08:26:06;;;;;;;8.52;5.00;;;;;;;;;;4992482;28;20038;-68
2021/08/27 08:28:32;;;;;;;9.80;5.07;;;;;;;;;;4993510;28;20096;-68
2021/08/27 08:30:57;;;;;;;9.35;5.05;;;;;;;;;;4997339;28;20113;-67
2021/08/27 08:33:23;;;;;;;7.10;4.78;;;;;;;;;;4994357;28;20054;-68
2021/08/27 08:35:48;;;;;;;7.55;4.63;;;;;;;;;;4992980;28;20030;-70
2021/08/27 08:38:15;;;;;;;7.60;4.38;;;;;;;;;;4993062;28;20030;-69
2021/08/27 08:40:41;;;;;;;7.40;4.28;;;;;;;;;;4992607;28;20030;-68
2021/08/27 08:43:09;;;;;;;14.10;5.10;;;;;;;;;;4992519;28;20065;-69
2021/08/27 08:45:38;;;;;;;7.03;4.78;;;;;;;;;;4991508;28;20038;-67
2021/08/27 08:48:06;;;;;;;7.65;4.82;;;;;;;;;;4993041;28;20038;-71
2021/08/27 08:50:32;;;;;;;7.30;4.63;;;;;;;;;;4992470;28;20045;-70
2021/08/27 08:52:58;;;;;;;12.20;5.20;;;;;;;;;;4994318;28;20035;-70
2021/08/27 08:55:24;;;;;;;8.63;5.22;;;;;;;;;;4994064;28;20046;-71
2021/08/27 08:57:51;;;;;;;13.75;5.55;;;;;;;;;;5001770;28;20508;-71
2021/08/27 09:00:16;;;;;;;8.65;4.90;;;;;;;;;;4990847;28;20514;-68
2021/08/27 09:02:42;;;;;;;8.82;5.15;;;;;;;;;;4992484;28;20077;-68
2021/08/27 09:05:08;;;;;;;7.28;4.82;;;;;;;;;;4992156;28;20030;-70
2021/08/27 09:07:34;;;;;;;10.63;4.95;;;;;;;;;;4992304;28;20046;-70
2021/08/27 09:10:02;;;;;;;8.27;4.43;;;;;;;;;;4992672;28;20429;-70
2021/08/27 09:12:29;;;;;;;7.68;4.55;;;;;;;;;;4992588;28;20459;-69
2021/08/27 09:14:59;;;;;;;6.97;4.63;;;;;;;;;;4992761;28;20026;-71
2021/08/27 09:17:33;;;;;;;7.78;4.50;;;;;;;;;;4992644;28;20145;-70
2021/08/27 09:20:02;;;;;;;6.60;4.18;;;;;;;;;;4991777;28;20018;-70
2021/08/27 09:22:43;;;;;;;6.32;4.05;;;;;;;;;;4992198;28;20382;-70
2021/08/27 09:25:10;;;;;;;7.43;4.20;;;;;;;;;;4992393;28;20051;-73
2021/08/27 09:28:00;;;;;;;6.47;4.13;;;;;;;;;;4992193;28;20038;-69
2021/08/27 09:30:26;;;;;;;8.45;4.28;;;;;;;;;;4979481;28;20402;-71
2021/08/27 09:32:54;;;;;;;8.68;4.10;;;;;;;;;;4992214;28;20029;-70
2021/08/27 09:35:23;;;;;;;7.30;4.07;;;;;;;;;;4991791;28;20034;-68
2021/08/27 09:37:53;;;;;;;7.78;3.95;;;;;;;;;;4992815;28;20489;-66
2021/08/27 09:40:27;;;;;;;8.32;4.15;;;;;;;;;;4992500;28;20037;-71
2021/08/27 09:42:54;;;;;;;6.95;3.80;;;;;;;;;;4991555;28;20103;-71
2021/08/27 09:45:33;;;;;;;6.47;3.72;;;;;;;;;;4992229;28;20080;-68
2021/08/27 09:48:00;;;;;;;7.43;4.32;;;;;;;;;;4973359;28;20035;-71
2021/08/27 09:50:30;;;;;;;8.00;4.20;;;;;;;;;;4991391;28;20552;-71
2021/08/27 09:52:57;;;;;;;6.25;4.00;;;;;;;;;;4992361;28;20105;-70
2021/08/27 09:55:23;;;;;;;5.97;3.95;;;;;;;;;;4992204;28;20030;-70
2021/08/27 09:57:50;;;;;;;7.60;4.30;;;;;;;;;;4995546;28;20030;-71
2021/08/27 10:00:20;;;;;;;6.60;4.53;;;;;;;;;;4996463;28;20030;-71
2021/08/27 10:02:47;;;;;;;6.03;4.20;;;;;;;;;;4996097;28;20398;-69
2021/08/27 10:05:14;;;;;;;10.00;4.40;;;;;;;;;;4996310;28;20378;-68
2021/08/27 10:07:41;;;;;;;9.27;4.85;;;;;;;;;;5004930;28;20054;-68
2021/08/27 10:10:08;;;;;;;7.85;5.28;;;;;;;;;;5015282;28;20038;-68
2021/08/27 10:12:36;;;;;;;8.95;5.38;;;;;;;;;;5015535;28;20474;-69
2021/08/27 10:15:04;;;;;;;7.20;5.75;;;;;;;;;;5014385;28;20064;-68
2021/08/27 10:17:30;;;;;;;7.95;5.28;;;;;;;;;;5015026;28;20100;-68
2021/08/27 10:19:56;;;;;;;10.57;5.90;;;;;;;;;;5015863;28;20467;-69
2021/08/27 10:22:22;;;;;;;10.63;5.45;;;;;;;;;;5014875;28;20091;-69
2021/08/27 10:24:49;;;;;;;8.52;5.78;;;;;;;;;;5014810;28;20017;-70
2021/08/27 10:27:15;;;;;;;7.15;5.78;;;;;;;;;;5014340;28;20036;-69
2021/08/27 10:29:55;;;;;;;9.52;6.63;;;;;;;;;;5014023;28;20026;-68
2021/08/27 10:32:39;;;;;;;8.07;6.07;;;;;;;;;;4996808;28;20060;-69
2021/08/27 10:35:39;;;;;;;10.27;6.03;;;;;;;;;;5014559;28;20022;-68
2021/08/27 10:38:05;;;;;;;10.00;6.15;;;;;;;;;;4996665;28;20061;-68
2021/08/27 10:40:39;;;;;;;9.07;6.35;;;;;;;;;;5013984;28;20108;-69
2021/08/27 10:43:05;;;;;;;9.30;6.22;;;;;;;;;;5014239;28;20105;-69
2021/08/27 10:45:41;;;;;;;9.98;6.68;;;;;;;;;;5014118;28;20517;-69
2021/08/27 10:48:24;;;;;;;9.23;6.72;;;;;;;;;;5014108;28;20083;-71
2021/08/27 10:50:51;;;;;;;12.48;6.68;;;;;;;;;;5009075;28;20026;-69
2021/08/27 10:53:19;;;;;;;11.80;6.88;;;;;;;;;;5014644;28;20033;-68
2021/08/27 10:55:45;;;;;;;8.23;6.72;;;;;;;;;;5014269;28;20025;-69
2021/08/27 10:58:13;;;;;;;7.60;6.80;;;;;;;;;;5013550;28;20026;-67
2021/08/27 11:00:52;;;;;;;7.80;6.45;;;;;;;;;;5013744;28;20136;-68
2021/08/27 11:03:18;;;;;;;11.30;7.40;;;;;;;;;;5014342;28;20022;-70
2021/08/27 11:05:49;;;;;;;8.50;6.63;;;;;;;;;;5014275;28;20455;-70
2021/08/27 11:08:18;;;;;;;8.30;6.80;;;;;;;;;;4998618;28;20476;-70
2021/08/27 11:11:05;;;;;;;9.23;7.18;;;;;;;;;;4993517;28;20395;-70
2021/08/27 11:13:35;;;;;;;8.18;5.60;;;;;;;;;;4994527;28;20030;-69
2021/08/27 11:16:21;;;;;;;11.48;7.72;;;;;;;;;;4994678;28;20026;-71
2021/08/27 11:18:48;;;;;;;8.15;6.53;;;;;;;;;;4994221;28;20121;-70
2021/08/27 11:21:37;;;;;;;7.72;6.00;;;;;;;;;;4994699;28;20037;-69
2021/08/27 11:24:14;;;;;;;9.45;5.60;;;;;;;;;;4994824;28;20030;-70
2021/08/27 11:26:42;;;;;;;8.43;6.15;;;;;;;;;;4994484;28;20045;-70
2021/08/27 11:29:38;;;;;;;6.30;5.28;;;;;;;;;;4994129;28;20026;-70
2021/08/27 11:32:09;;;;;;;7.53;5.68;;;;;;;;;;4993597;28;20018;-70
2021/08/27 11:34:53;;;;;;;8.20;5.95;;;;;;;;;;4994154;28;20376;-69
2021/08/27 11:37:24;;;;;;;6.68;5.35;;;;;;;;;;4992962;28;20022;-70
2021/08/27 11:39:52;;;;;;;6.05;4.60;;;;;;;;;;4994245;28;20033;-70
2021/08/27 11:42:19;;;;;;;7.13;4.95;;;;;;;;;;4993641;28;20026;-69
2021/08/27 11:44:54;;;;;;;6.00;4.57;;;;;;;;;;4993246;28;20026;-70
2021/08/27 11:47:20;;;;;;;7.43;4.72;;;;;;;;;;5008668;28;20037;-69
2021/08/27 11:49:56;;;;;;;6.90;4.82;;;;;;;;;;4993856;28;20034;-70
2021/08/27 11:52:29;;;;;;;7.88;4.65;;;;;;;;;;4992895;28;20117;-68
2021/08/27 11:55:12;;;;;;;7.28;4.72;;;;;;;;;;4996880;28;20038;-69
2021/08/27 11:57:53;;;;;;;8.63;4.60;;;;;;;;;;4999436;28;20034;-69
2021/08/27 12:00:35;;;;;;;6.97;4.78;;;;;;;;;;4997301;28;20062;-69
2021/08/27 12:03:00;;;;;;;8.90;5.70;;;;;;;;;;4994272;28;20117;-69
2021/08/27 12:05:28;;;;;;;6.90;5.10;;;;;;;;;;4993144;28;20539;-69
2021/08/27 12:08:01;;;;;;;5.63;4.68;;;;;;;;;;5004679;28;20056;-71
2021/08/27 12:10:31;;;;;;;6.65;4.55;;;;;;;;;;5013488;28;20029;-71
2021/08/27 12:12:57;;;;;;;6.47;4.43;;;;;;;;;;5014389;28;20036;-71
2021/08/27 12:15:32;;;;;;;7.75;4.50;;;;;;;;;;5017990;28;21333;-68
2021/08/27 12:18:06;;;;;;;6.15;4.43;;;;;;;;;;5012975;28;20104;-70
2021/08/27 12:20:37;;;;;;;9.48;4.68;;;;;;;;;;5012806;28;20746;-70
2021/08/27 12:23:08;;;;;;;6.60;4.13;;;;;;;;;;5013059;28;20021;-68
2021/08/27 12:25:40;;;;;;;6.75;3.97;;;;;;;;;;5013223;28;20434;-70
2021/08/27 12:28:06;;;;;;;7.78;3.72;;;;;;;;;;5012655;28;20025;-75
2021/08/27 12:30:33;;;;;;;5.25;3.95;;;;;;;;;;5012055;28;20489;-71
2021/08/27 12:32:58;;;;;;;6.25;3.70;;;;;;;;;;5012899;28;20040;-69
2021/08/27 12:35:34;;;;;;;4.72;3.10;;;;;;;;;;4993979;28;20394;-69
2021/08/27 12:38:01;;;;;;;4.70;3.30;;;;;;;;;;5012723;28;20034;-70
2021/08/27 12:40:28;;;;;;;4.88;2.95;;;;;;;;;;5012577;28;20030;-73
2021/08/27 12:43:03;;;;;;;5.20;3.17;;;;;;;;;;5014857;28;20041;-70
2021/08/27 12:46:08;;;;;;;4.68;2.90;;;;;;;;;;5012088;28;20494;-72
2021/08/27 12:48:34;;;;;;;3.47;2.55;;;;;;;;;;5010758;28;20033;-69
2021/08/27 12:51:04;;;;;;;4.10;2.80;;;;;;;;;;5011860;28;20121;-71
2021/08/27 12:53:38;;;;;;;4.38;3.15;;;;;;;;;;5009281;28;20029;-70
2021/08/27 12:56:17;;;;;;;4.53;2.50;;;;;;;;;;5009487;28;20525;-70
2021/08/27 12:58:47;;;;;;;5.93;2.40;;;;;;;;;;5029414;28;20108;-72
2021/08/27 13:01:21;;;;;;;4.97;3.00;;;;;;;;;;5023469;28;20030;-69
2021/08/27 13:03:49;;;;;;;4.63;2.40;;;;;;;;;;5021939;28;20037;-71
2021/08/27 13:06:42;;;;;;;4.53;3.03;;;;;;;;;;5018442;28;20080;-70
2021/08/27 13:09:18;;;;;;;3.95;2.45;;;;;;;;;;4973062;28;20053;-71
2021/08/27 13:11:59;;;;;;;3.70;2.40;;;;;;;;;;4973767;28;20022;-71
2021/08/27 13:14:26;;;;;;;5.00;2.80;;;;;;;;;;4973734;28;20066;-71
2021/08/27 13:17:02;;;;;;;4.32;2.70;;;;;;;;;;4973571;28;20023;-69
2021/08/27 13:19:55;;;;;;;4.15;2.78;;;;;;;;;;4973287;28;20029;-71
2021/08/27 13:22:24;;;;;;;5.78;2.88;;;;;;;;;;4973161;28;20031;-70
2021/08/27 13:25:09;;;;;;;6.53;3.45;;;;;;;;;;4954124;29;20023;-71
2021/08/27 13:27:37;;;;;;;5.82;3.35;;;;;;;;;;4953920;29;20465;-68
2021/08/27 13:30:05;;;;;;;4.97;3.08;;;;;;;;;;4967657;28;20022;-71
2021/08/27 13:32:50;;;;;;;6.00;3.38;;;;;;;;;;4987091;28;20027;-71
2021/08/27 13:35:16;;;;;;;5.60;3.13;;;;;;;;;;4964195;28;20028;-71
2021/08/27 13:37:44;;;;;;;5.07;2.55;;;;;;;;;;4958705;28;20034;-71
2021/08/27 13:40:11;;;;;;;5.88;2.92;;;;;;;;;;4956937;28;20035;-70
2021/08/27 13:42:38;;;;;;;6.22;3.15;;;;;;;;;;4972486;28;20030;-70
2021/08/27 13:45:07;;;;;;;4.18;2.63;;;;;;;;;;4971198;28;20033;-71
2021/08/27 13:47:33;;;;;;;3.80;2.88;;;;;;;;;;4953704;28;20042;-70
2021/08/27 13:49:59;;;;;;;4.20;2.95;;;;;;;;;;4954886;28;20345;-69
2021/08/27 13:52:24;;;;;;;5.50;2.95;;;;;;;;;;4953938;28;20082;-72
2021/08/27 13:54:50;;;;;;;4.85;2.70;;;;;;;;;;4955915;28;20035;-71
2021/08/27 13:57:15;;;;;;;4.63;2.88;;;;;;;;;;4960184;28;20023;-70
2021/08/27 13:59:41;;;;;;;5.88;2.90;;;;;;;;;;4961286;28;20030;-70
2021/08/27 14:02:11;;;;;;;6.05;2.90;;;;;;;;;;4955209;28;20040;-71
2021/08/27 14:04:37;;;;;;;4.60;2.88;;;;;;;;;;4958798;28;20027;-69
2021/08/27 14:07:04;;;;;;;3.97;2.78;;;;;;;;;;4962140;28;20404;-69
2021/08/27 14:09:30;;;;;;;5.32;2.97;;;;;;;;;;5010453;28;20053;-69
2021/08/27 14:11:55;;;;;;;5.72;3.72;;;;;;;;;;5011472;28;20022;-68
2021/08/27 14:14:21;;;;;;;4.97;3.38;;;;;;;;;;5011418;28;20033;-70
2021/08/27 14:16:47;;;;;;;8.55;3.45;;;;;;;;;;5011137;28;20042;-70
2021/08/27 14:19:12;;;;;;;6.15;3.45;;;;;;;;;;4995890;28;20034;-70
2021/08/27 14:21:38;;;;;;;5.13;3.42;;;;;;;;;;5011170;28;20036;-73
2021/08/27 14:24:04;;;;;;;4.60;3.00;;;;;;;;;;5010873;28;20061;-68
2021/08/27 14:26:29;;;;;;;4.20;2.88;;;;;;;;;;5010996;28;20029;-71
2021/08/27 14:28:55;;;;;;;4.63;3.05;;;;;;;;;;4993678;28;20042;-72
2021/08/27 14:31:20;;;;;;;4.63;3.30;;;;;;;;;;5011144;28;20029;-70
2021/08/27 14:33:53;;;;;;;5.95;3.10;;;;;;;;;;5011287;28;20025;-69
2021/08/27 14:36:19;;;;;;;5.63;3.33;;;;;;;;;;5011725;28;20022;-72
2021/08/27 14:38:44;;;;;;;4.50;3.08;;;;;;;;;;5010948;28;20370;-68
2021/08/27 14:41:10;;;;;;;5.05;2.80;;;;;;;;;;5011430;28;20087;-69
2021/08/27 14:43:35;;;;;;;7.35;3.25;;;;;;;;;;5012751;28;20034;-71
2021/08/27 14:46:01;;;;;;;7.68;3.45;;;;;;;;;;5015568;28;20021;-72